Time;durP1;ratioP1;P1;durP2;ratioP2;P2;SDS_P1;SDS_P2;PMS_P1;PMS_P2;Temp;Humidity;BMP_temperature;BMP_pressure;BME280_temperature;BME280_humidity;BME280_pressure;Samples;Min_cycle;Max_cycle;Signal;HPM_P1;HPM_P2
2021/10/16 00:00:14;;;;;;;6.88;4.72;;;;;;;11.93;54.19;99395.69;3362718;29;20049;-73
2021/10/16 00:01:55;;;;;;;7.93;5.35;;;;;;;11.97;54.22;99404.09;3375087;29;20100;-73
2021/10/16 00:03:36;;;;;;;8.05;4.20;;;;;;;12.06;54.18;99400.19;3365139;29;20131;-73
2021/10/16 00:05:16;;;;;;;7.68;4.60;;;;;;;12.06;54.07;99391.34;3362993;29;20040;-73
2021/10/16 00:06:57;;;;;;;8.25;5.32;;;;;;;12.05;54.18;99403.03;3362818;29;20041;-73
2021/10/16 00:08:38;;;;;;;6.72;5.10;;;;;;;12.03;54.07;99397.94;3362586;29;20533;-72
2021/10/16 00:10:19;;;;;;;5.07;4.13;;;;;;;12.07;54.08;99392.97;3362701;29;20053;-74
2021/10/16 00:11:59;;;;;;;7.88;5.22;;;;;;;12.11;54.18;99392.34;3362088;29;20501;-75
2021/10/16 00:13:41;;;;;;;5.70;4.43;;;;;;;12.04;54.36;99394.22;3362674;29;20193;-73
2021/10/16 00:15:22;;;;;;;;;;;;;;;12.10;54.03;99398.72;3363021;29;20076;-73
2021/10/16 00:17:03;;;;;;;8.57;4.55;;;;;;;11.94;54.42;99385.84;3362723;29;19936;-74
2021/10/16 00:18:43;;;;;;;8.10;4.93;;;;;;;11.88;54.63;99386.69;3362929;29;20072;-73
2021/10/16 00:20:25;;;;;;;9.02;4.88;;;;;;;11.92;54.62;99390.56;3362680;29;20137;-72
2021/10/16 00:22:05;;;;;;;6.68;4.50;;;;;;;11.95;54.51;99395.47;3362754;29;20049;-72
2021/10/16 00:23:46;;;;;;;9.13;6.07;;;;;;;11.97;54.49;99391.56;3362645;29;20056;-73
2021/10/16 00:25:27;;;;;;;5.88;4.65;;;;;;;12.00;54.45;99393.00;3362696;29;20189;-73
2021/10/16 00:27:08;;;;;;;7.53;5.25;;;;;;;11.98;54.52;99381.72;3387331;29;20483;-73
2021/10/16 00:28:48;;;;;;;12.48;5.65;;;;;;;11.97;54.54;99380.88;3368019;29;20045;-74
2021/10/16 00:30:29;;;;;;;7.75;4.50;;;;;;;11.94;54.72;99383.16;3362607;29;20059;-72
2021/10/16 00:32:10;;;;;;;7.20;4.93;;;;;;;11.88;54.84;99389.34;3361991;29;20092;-72
2021/10/16 00:33:50;;;;;;;6.85;4.70;;;;;;;11.83;54.94;99376.59;3359154;29;20195;-74
2021/10/16 00:35:31;;;;;;;7.53;4.80;;;;;;;11.83;55.15;99387.28;3384456;29;20460;-73
2021/10/16 00:37:12;;;;;;;7.85;4.90;;;;;;;11.84;54.90;99388.91;3367735;29;20064;-73
2021/10/16 00:38:54;;;;;;;6.68;4.47;;;;;;;11.89;54.97;99380.31;3387190;29;20044;-72
2021/10/16 00:40:35;;;;;;;8.20;4.07;;;;;;;11.89;54.76;99369.63;3363998;29;20071;-72
2021/10/16 00:42:15;;;;;;;6.20;4.35;;;;;;;11.88;54.94;99394.69;3362137;29;20162;-73
2021/10/16 00:44:15;;;;;;;6.25;4.65;;;;;;;11.87;54.97;99377.03;3361543;29;20040;-74
2021/10/16 00:45:56;;;;;;;7.10;4.50;;;;;;;11.80;55.09;99379.69;3362460;29;20041;-72
2021/10/16 00:47:37;;;;;;;9.15;4.80;;;;;;;11.79;55.39;99376.19;3361228;29;20053;-73
2021/10/16 00:49:17;;;;;;;6.78;4.82;;;;;;;11.82;55.07;99382.13;3358997;29;20045;-73
2021/10/16 00:50:58;;;;;;;7.45;4.22;;;;;;;11.84;54.93;99377.41;3361974;29;20053;-72
2021/10/16 00:52:40;;;;;;;6.60;4.97;;;;;;;11.85;55.05;99368.34;3362444;29;20052;-74
2021/10/16 00:54:21;;;;;;;5.55;4.50;;;;;;;11.86;54.86;99376.19;3362395;29;20045;-72
2021/10/16 00:56:02;;;;;;;6.87;4.70;;;;;;;11.86;54.86;99370.88;3362216;29;20041;-73
2021/10/16 00:57:44;;;;;;;5.97;4.72;;;;;;;11.84;54.87;99370.22;3362466;29;20045;-72
2021/10/16 00:59:25;;;;;;;8.35;5.28;;;;;;;11.86;54.94;99368.19;3387443;29;20119;-73
2021/10/16 01:01:06;;;;;;;6.22;5.03;;;;;;;11.89;55.10;99364.28;3367009;29;20509;-73
2021/10/16 01:02:47;;;;;;;5.55;4.28;;;;;;;11.92;54.87;99374.53;3362438;29;20048;-73
2021/10/16 01:04:30;;;;;;;6.50;4.00;;;;;;;11.97;54.99;99372.06;3374003;29;20083;-73
2021/10/16 01:06:19;;;;;;;5.85;4.25;;;;;;;12.01;54.73;99389.31;3386816;29;20508;-73
2021/10/16 01:08:02;;;;;;;7.78;4.53;;;;;;;11.94;54.74;99377.81;3363406;29;20468;-72
2021/10/16 01:09:43;;;;;;;7.88;4.95;;;;;;;11.86;54.80;99380.69;3361356;29;20072;-73
2021/10/16 01:11:52;;;;;;;5.10;4.20;;;;;;;11.89;54.79;99378.44;3361352;29;20071;-72
2021/10/16 01:13:33;;;;;;;9.60;4.60;;;;;;;11.83;54.99;99375.78;3373871;29;20165;-72
2021/10/16 01:15:16;;;;;;;7.88;4.18;;;;;;;11.79;55.05;99375.38;3348595;29;20045;-73
2021/10/16 01:16:58;;;;;;;7.03;4.18;;;;;;;11.76;55.06;99378.47;3359881;29;20044;-73
2021/10/16 01:18:39;;;;;;;5.38;3.97;;;;;;;11.79;55.13;99362.00;3361143;29;20064;-72
2021/10/16 01:20:24;;;;;;;6.75;4.13;;;;;;;11.85;55.21;99369.19;3358814;29;20536;-72
2021/10/16 01:22:05;;;;;;;6.07;3.70;;;;;;;11.93;54.96;99365.50;3361827;29;20421;-73
2021/10/16 01:23:46;;;;;;;8.57;3.95;;;;;;;12.02;54.73;99358.88;3364143;29;20048;-72
2021/10/16 01:25:26;;;;;;;5.05;3.47;;;;;;;12.13;54.58;99349.38;3389190;29;20484;-71
2021/10/16 01:27:08;;;;;;;6.30;4.35;;;;;;;12.27;54.24;99360.84;3369452;29;20084;-72
2021/10/16 01:28:48;;;;;;;7.15;4.15;;;;;;;12.35;53.96;99349.91;3364489;29;20056;-73
2021/10/16 01:30:29;;;;;;;6.32;4.55;;;;;;;12.44;53.81;99352.09;3364253;29;20139;-72
2021/10/16 01:32:10;;;;;;;6.15;4.60;;;;;;;12.55;53.77;99358.63;3363371;29;20041;-73
2021/10/16 01:33:51;;;;;;;5.55;4.20;;;;;;;12.62;53.41;99359.41;3364323;29;20037;-73
2021/10/16 01:35:31;;;;;;;6.78;4.55;;;;;;;12.64;53.16;99364.50;3364283;29;20045;-73
2021/10/16 01:37:12;;;;;;;8.25;4.47;;;;;;;12.65;53.34;99355.47;3363187;29;20049;-73
2021/10/16 01:38:56;;;;;;;13.13;4.68;;;;;;;12.66;53.18;99357.91;3361334;29;20040;-73
2021/10/16 01:40:37;;;;;;;7.32;4.10;;;;;;;12.61;53.19;99367.63;3347696;29;20403;-71
2021/10/16 01:42:17;;;;;;;4.60;4.07;;;;;;;12.47;53.34;99366.03;3358009;29;20156;-72
2021/10/16 01:44:16;;;;;;;8.40;4.72;;;;;;;12.39;53.46;99359.09;3388704;29;20492;-73
2021/10/16 01:45:56;;;;;;;7.82;4.38;;;;;;;12.33;53.72;99354.63;3369083;29;20049;-73
2021/10/16 01:47:47;;;;;;;9.75;4.28;;;;;;;12.32;53.77;99355.66;3363190;29;20075;-74
2021/10/16 01:49:28;;;;;;;6.68;4.55;;;;;;;12.27;53.77;99358.16;3374375;29;20131;-74
2021/10/16 01:51:09;;;;;;;7.43;4.80;;;;;;;12.21;53.86;99341.97;3350334;29;20082;-73
2021/10/16 01:52:54;;;;;;;7.57;4.50;;;;;;;12.18;53.87;99346.88;3371843;29;20052;-73
2021/10/16 01:54:36;;;;;;;7.82;5.45;;;;;;;12.22;53.90;99348.13;3350234;29;20529;-74
2021/10/16 01:56:17;;;;;;;8.30;5.20;;;;;;;12.30;53.84;99347.03;3373676;29;20056;-72
2021/10/16 01:58:11;;;;;;;4.53;3.80;;;;;;;12.39;53.73;99348.41;3376333;29;20056;-72
2021/10/16 01:59:58;;;;;;;10.15;4.97;;;;;;;12.33;53.52;99334.06;3363239;29;20521;-74
2021/10/16 02:01:38;;;;;;;6.88;4.35;;;;;;;12.33;53.84;99338.59;3364109;29;20068;-73
2021/10/16 02:03:36;;;;;;;8.15;4.45;;;;;;;12.30;53.70;99344.38;3376151;29;20425;-72
2021/10/16 02:05:31;;;;;;;8.40;4.88;;;;;;;12.27;53.72;99344.81;3362954;29;20505;-74
2021/10/16 02:07:32;;;;;;;7.60;4.72;;;;;;;12.20;53.82;99337.63;3362832;29;20075;-72
2021/10/16 02:09:13;;;;;;;13.25;5.22;;;;;;;12.16;53.97;99341.78;3360699;29;20052;-72
2021/10/16 02:10:55;;;;;;;5.53;4.40;;;;;;;12.15;54.03;99347.31;3386275;29;20052;-72
2021/10/16 02:12:35;;;;;;;8.13;4.20;;;;;;;12.18;54.08;99326.34;3378074;29;20040;-72
2021/10/16 02:14:16;;;;;;;7.25;4.70;;;;;;;12.29;53.90;99340.88;3362946;29;20037;-71
2021/10/16 02:16:00;;;;;;;8.40;5.32;;;;;;;12.37;53.73;99331.78;3360917;29;20059;-73
2021/10/16 02:17:50;;;;;;;6.93;4.65;;;;;;;12.35;53.68;99331.19;3361323;29;20055;-73
2021/10/16 02:19:30;;;;;;;5.55;4.00;;;;;;;12.29;53.65;99324.00;3372981;29;20648;-73
2021/10/16 02:21:12;;;;;;;14.02;5.03;;;;;;;12.26;53.89;99329.78;3362820;29;20056;-72
2021/10/16 02:22:54;;;;;;;4.68;4.13;;;;;;;12.28;53.77;99319.72;3360329;29;20108;-72
2021/10/16 02:24:38;;;;;;;8.60;4.70;;;;;;;12.29;53.81;99316.84;3386244;29;20621;-72
2021/10/16 02:26:19;;;;;;;4.75;3.80;;;;;;;12.36;53.73;99317.59;3368678;29;20049;-72
2021/10/16 02:28:03;;;;;;;6.03;4.60;;;;;;;12.47;53.68;99324.13;3362675;29;20096;-72
2021/10/16 02:29:44;;;;;;;7.50;4.95;;;;;;;12.47;53.51;99328.63;3360175;29;20048;-72
2021/10/16 02:31:25;;;;;;;6.28;5.07;;;;;;;12.39;53.53;99319.00;3363741;29;20053;-74
2021/10/16 02:33:08;;;;;;;7.72;4.70;;;;;;;12.32;53.70;99313.72;3362603;29;20052;-73
2021/10/16 02:34:48;;;;;;;6.47;4.57;;;;;;;12.28;53.90;99325.06;3362645;29;20524;-72
2021/10/16 02:36:34;;;;;;;9.43;4.95;;;;;;;12.18;54.10;99318.34;3362421;29;20591;-73
2021/10/16 02:38:15;;;;;;;5.97;4.55;;;;;;;12.15;54.20;99318.75;3363483;29;20109;-73
2021/10/16 02:39:55;;;;;;;7.10;4.78;;;;;;;12.16;54.04;99322.25;3363634;29;20045;-73
2021/10/16 02:41:36;;;;;;;10.40;5.47;;;;;;;12.19;54.09;99319.97;3388519;29;20040;-72
2021/10/16 02:43:17;;;;;;;8.80;4.97;;;;;;;12.22;54.06;99308.03;3365224;29;20048;-74
2021/10/16 02:44:59;;;;;;;7.80;5.22;;;;;;;12.26;53.99;99327.13;3385796;29;20088;-73
2021/10/16 02:46:39;;;;;;;6.63;5.30;;;;;;;12.23;53.94;99318.50;3368419;29;20452;-72
2021/10/16 02:48:20;;;;;;;6.00;4.85;;;;;;;12.28;54.26;99311.69;3362769;29;20436;-73
2021/10/16 02:50:01;;;;;;;6.40;4.95;;;;;;;12.33;53.94;99314.53;3362420;29;20420;-73
2021/10/16 02:51:41;;;;;;;7.43;4.20;;;;;;;12.37;53.79;99310.41;3363078;29;20190;-73
2021/10/16 02:53:22;;;;;;;9.38;4.28;;;;;;;12.43;53.64;99312.22;3363507;29;20052;-73
2021/10/16 02:55:06;;;;;;;9.52;5.95;;;;;;;12.50;53.55;99318.34;3362212;29;20048;-72
2021/10/16 02:57:03;;;;;;;6.45;4.82;;;;;;;12.54;53.43;99308.03;3362054;29;20576;-74
2021/10/16 02:58:44;;;;;;;5.88;4.30;;;;;;;12.51;53.50;99309.28;3359928;29;21340;-74
2021/10/16 03:00:26;;;;;;;8.00;5.47;;;;;;;12.47;53.61;99307.25;3362341;29;20049;-73
2021/10/16 03:02:09;;;;;;;6.70;4.70;;;;;;;12.37;53.63;99297.88;3349358;29;20080;-73
2021/10/16 03:03:50;;;;;;;7.72;4.82;;;;;;;12.49;53.62;99299.84;3360452;29;20037;-73
2021/10/16 03:05:30;;;;;;;8.30;5.35;;;;;;;12.58;53.45;99304.72;3361988;29;20072;-73
2021/10/16 03:07:12;;;;;;;6.82;5.13;;;;;;;12.63;53.29;99307.56;3359480;29;20100;-73
2021/10/16 03:08:58;;;;;;;7.20;4.90;;;;;;;12.63;53.28;99320.09;3359899;29;20053;-74
2021/10/16 03:10:43;;;;;;;11.25;5.32;;;;;;;12.62;53.23;99311.28;3385435;29;20152;-73
2021/10/16 03:12:24;;;;;;;11.23;5.72;;;;;;;12.56;53.46;99306.78;3376946;29;20226;-75
2021/10/16 03:14:11;;;;;;;7.30;5.03;;;;;;;12.51;53.49;99298.59;3374722;29;20055;-72
2021/10/16 03:15:54;;;;;;;6.15;4.45;;;;;;;12.40;53.69;99308.13;3361939;29;20060;-73
2021/10/16 03:17:35;;;;;;;8.80;5.35;;;;;;;12.36;53.77;99316.78;3362566;29;20128;-73
2021/10/16 03:19:16;;;;;;;8.52;5.00;;;;;;;12.29;53.91;99311.50;3362249;29;20053;-74
2021/10/16 03:21:05;;;;;;;8.43;5.00;;;;;;;12.30;53.96;99312.31;3373244;29;20041;-72
2021/10/16 03:22:46;;;;;;;5.75;3.95;;;;;;;12.36;53.84;99312.25;3361916;29;20060;-73
2021/10/16 03:24:27;;;;;;;6.53;4.78;;;;;;;12.38;53.74;99301.34;3362116;29;20559;-72
2021/10/16 03:26:08;;;;;;;6.20;4.43;;;;;;;12.34;53.78;99305.47;3385186;29;20483;-74
2021/10/16 03:27:48;;;;;;;7.15;5.63;;;;;;;12.31;53.79;99303.25;3364472;29;20200;-73
2021/10/16 03:29:31;;;;;;;5.45;4.85;;;;;;;12.29;53.89;99313.31;3372396;29;20084;-74
2021/10/16 03:31:12;;;;;;;10.00;5.13;;;;;;;12.25;54.06;99304.94;3375092;29;20052;-73
2021/10/16 03:32:52;;;;;;;8.10;4.90;;;;;;;12.20;54.17;99302.91;3361967;29;20086;-75
2021/10/16 03:34:33;;;;;;;9.98;6.07;;;;;;;12.13;54.12;99291.44;3362135;29;20117;-74
2021/10/16 03:36:14;;;;;;;8.37;4.67;;;;;;;12.17;54.24;99306.00;3385334;29;20046;-74
2021/10/16 03:37:55;;;;;;;8.05;4.68;;;;;;;12.15;54.23;99308.06;3377327;29;20356;-74
2021/10/16 03:39:35;;;;;;;9.05;5.22;;;;;;;12.15;54.29;99316.06;3387598;29;20048;-73
2021/10/16 03:41:16;;;;;;;7.90;5.00;;;;;;;12.09;54.32;99305.44;3364338;29;20048;-73
2021/10/16 03:42:57;;;;;;;8.20;4.73;;;;;;;12.08;54.55;99309.97;3385191;29;20036;-74
2021/10/16 03:44:38;;;;;;;12.10;5.53;;;;;;;12.07;54.48;99313.66;3367746;29;20075;-74
2021/10/16 03:46:19;;;;;;;7.40;5.78;;;;;;;12.02;54.56;99318.81;3362113;29;20045;-73
2021/10/16 03:48:00;;;;;;;9.80;5.38;;;;;;;11.97;54.82;99319.44;3359071;29;20045;-73
2021/10/16 03:49:40;;;;;;;8.18;5.45;;;;;;;11.89;54.82;99306.34;3359215;29;20041;-73
2021/10/16 03:51:21;;;;;;;7.40;5.78;;;;;;;11.93;54.99;99322.78;3359209;29;20505;-74
2021/10/16 03:53:02;;;;;;;13.73;5.18;;;;;;;11.89;55.12;99319.69;3358875;29;20128;-73
2021/10/16 03:54:43;;;;;;;9.03;5.10;;;;;;;11.72;54.91;99283.78;3361762;29;20057;-74
2021/10/16 03:56:24;;;;;;;8.30;5.32;;;;;;;11.93;54.94;99306.75;3372020;29;20100;-73
2021/10/16 03:58:05;;;;;;;11.80;5.53;;;;;;;11.95;54.86;99312.69;3387329;29;20047;-72
2021/10/16 03:59:46;;;;;;;7.18;4.95;;;;;;;11.98;54.80;99317.63;3364314;29;20045;-73
2021/10/16 04:01:27;;;;;;;7.47;5.32;;;;;;;12.06;54.77;99314.69;3361413;29;20044;-74
2021/10/16 04:03:08;;;;;;;7.97;4.85;;;;;;;12.11;54.61;99317.56;3362896;29;20053;-73
2021/10/16 04:04:50;;;;;;;8.30;4.82;;;;;;;12.19;54.50;99317.28;3361701;29;20045;-73
2021/10/16 04:06:31;;;;;;;6.25;4.57;;;;;;;12.28;54.51;99317.03;3371550;29;20539;-73
2021/10/16 04:08:11;;;;;;;7.28;5.38;;;;;;;12.32;54.30;99318.25;3387389;29;20063;-74
2021/10/16 04:09:52;;;;;;;8.90;4.87;;;;;;;12.32;54.10;99315.59;3365191;29;20049;-74
2021/10/16 04:11:33;;;;;;;9.30;5.65;;;;;;;12.25;54.13;99314.81;3362414;29;20535;-74
2021/10/16 04:13:14;;;;;;;6.45;5.05;;;;;;;12.23;54.35;99297.13;3388007;29;20044;-72
2021/10/16 04:14:59;;;;;;;6.38;4.13;;;;;;;12.31;54.42;99314.75;3363549;29;20044;-73
2021/10/16 04:16:45;;;;;;;7.90;4.82;;;;;;;12.36;54.14;99316.78;3372450;29;20100;-73
2021/10/16 04:18:26;;;;;;;10.35;4.70;;;;;;;12.43;54.09;99306.88;3387435;29;20474;-72
2021/10/16 04:20:08;;;;;;;5.82;4.43;;;;;;;12.54;54.03;99308.84;3364088;29;20548;-73
2021/10/16 04:21:57;;;;;;;9.77;5.03;;;;;;;12.64;53.57;99301.16;3360205;29;20536;-73
2021/10/16 04:23:38;;;;;;;7.25;5.10;;;;;;;12.68;53.40;99308.78;3362239;29;20135;-74
2021/10/16 04:25:19;;;;;;;8.82;4.88;;;;;;;12.58;53.43;99320.75;3387276;29;20044;-73
2021/10/16 04:26:59;;;;;;;9.07;4.60;;;;;;;12.48;53.71;99309.72;3351089;29;20045;-72
2021/10/16 04:28:43;;;;;;;7.00;4.13;;;;;;;12.43;53.77;99309.53;3357931;29;20553;-73
2021/10/16 04:30:42;;;;;;;7.68;4.72;;;;;;;12.48;53.78;99309.72;3363167;29;20049;-72
2021/10/16 04:32:23;;;;;;;6.00;4.43;;;;;;;12.50;53.64;99315.66;3388052;29;20044;-73
2021/10/16 04:34:06;;;;;;;7.90;4.28;;;;;;;12.54;53.54;99300.00;3364681;29;20139;-73
2021/10/16 04:35:47;;;;;;;7.78;4.88;;;;;;;12.53;53.54;99317.91;3360198;29;20052;-72
2021/10/16 04:37:27;;;;;;;8.63;5.70;;;;;;;12.51;53.39;99313.81;3363209;29;20047;-73
2021/10/16 04:39:08;;;;;;;9.25;4.70;;;;;;;12.39;53.37;99306.50;3361488;29;20057;-74
2021/10/16 04:40:49;;;;;;;9.57;5.15;;;;;;;12.35;53.87;99315.16;3362168;29;20052;-72
2021/10/16 04:42:30;;;;;;;8.43;5.60;;;;;;;12.33;53.79;99311.88;3361373;29;20152;-73
2021/10/16 04:44:11;;;;;;;6.55;5.68;;;;;;;12.30;53.80;99314.97;3361460;29;20081;-73
2021/10/16 04:45:51;;;;;;;11.48;4.78;;;;;;;12.28;53.87;99314.38;3362414;29;20175;-72
2021/10/16 04:47:33;;;;;;;7.78;5.05;;;;;;;12.31;53.74;99309.41;3362244;29;20040;-73
2021/10/16 04:49:14;;;;;;;8.07;4.82;;;;;;;12.34;53.68;99308.16;3348599;29;20048;-73
2021/10/16 04:50:55;;;;;;;7.68;5.30;;;;;;;12.35;53.57;99299.94;3356385;29;20049;-73
2021/10/16 04:52:36;;;;;;;6.03;4.90;;;;;;;12.37;53.44;99302.41;3384525;29;20079;-73
2021/10/16 04:54:21;;;;;;;7.75;5.35;;;;;;;12.41;53.32;99306.25;3376198;29;20049;-74
2021/10/16 04:56:03;;;;;;;7.07;4.95;;;;;;;12.39;53.35;99301.16;3361168;29;20085;-75
2021/10/16 04:57:44;;;;;;;11.75;4.43;;;;;;;12.40;53.53;99301.97;3359393;29;20045;-72
2021/10/16 04:59:26;;;;;;;7.13;4.47;;;;;;;12.55;53.42;99315.84;3361151;29;20144;-72
2021/10/16 05:01:07;;;;;;;7.47;4.57;;;;;;;12.70;52.90;99290.63;3364854;29;20055;-72
2021/10/16 05:02:47;;;;;;;6.35;4.70;;;;;;;12.85;52.73;99288.44;3363835;29;20045;-73
2021/10/16 05:04:29;;;;;;;10.52;4.95;;;;;;;13.01;52.19;99303.94;3361083;29;20109;-73
2021/10/16 05:06:13;;;;;;;7.55;4.95;;;;;;;13.06;51.98;99284.53;3374379;29;20049;-73
2021/10/16 05:07:54;;;;;;;5.55;4.90;;;;;;;13.08;51.80;99294.00;3363237;29;20109;-74
2021/10/16 05:09:34;;;;;;;11.88;5.05;;;;;;;13.09;51.70;99292.97;3363612;29;20045;-73
2021/10/16 05:11:16;;;;;;;10.20;4.78;;;;;;;13.10;51.56;99281.22;3363698;29;20049;-72
2021/10/16 05:12:56;;;;;;;9.68;4.90;;;;;;;13.06;51.63;99290.75;3361129;29;20152;-73
2021/10/16 05:14:37;;;;;;;7.05;4.82;;;;;;;13.01;51.87;99287.06;3364318;29;20041;-74
2021/10/16 05:16:18;;;;;;;6.88;4.85;;;;;;;13.01;51.72;99308.47;3363564;29;20056;-74
2021/10/16 05:18:00;;;;;;;5.60;4.00;;;;;;;12.97;51.86;99283.22;3360988;29;20201;-73
2021/10/16 05:19:50;;;;;;;7.80;5.05;;;;;;;12.97;51.70;99278.66;3362258;29;20539;-74
2021/10/16 05:21:32;;;;;;;6.55;5.10;;;;;;;12.99;51.83;99289.16;3360721;29;20045;-73
2021/10/16 05:23:12;;;;;;;5.30;4.43;;;;;;;12.97;51.87;99277.84;3373693;29;20049;-73
2021/10/16 05:24:53;;;;;;;8.80;5.32;;;;;;;12.98;51.88;99276.81;3378998;29;20524;-72
2021/10/16 05:26:35;;;;;;;5.35;4.20;;;;;;;13.04;51.76;99271.41;3363015;29;20476;-74
2021/10/16 05:28:17;;;;;;;8.10;5.00;;;;;;;13.03;51.66;99275.09;3387074;29;20060;-72
2021/10/16 05:29:58;;;;;;;6.90;4.85;;;;;;;13.01;51.67;99266.50;3365941;29;20052;-72
2021/10/16 05:31:39;;;;;;;5.30;4.80;;;;;;;13.02;51.67;99276.16;3364157;29;20131;-72
2021/10/16 05:33:20;;;;;;;10.32;4.72;;;;;;;13.01;51.70;99277.19;3376238;29;20474;-73
2021/10/16 05:35:02;;;;;;;7.65;5.35;;;;;;;12.98;51.67;99282.16;3363202;29;20040;-73
2021/10/16 05:36:43;;;;;;;9.93;4.78;;;;;;;12.99;51.57;99273.91;3376239;29;20044;-72
2021/10/16 05:38:25;;;;;;;9.23;4.88;;;;;;;13.00;51.61;99275.53;3350452;29;20544;-72
2021/10/16 05:40:06;;;;;;;7.45;4.82;;;;;;;13.03;51.64;99267.06;3370865;29;20044;-73
2021/10/16 05:41:48;;;;;;;7.88;4.97;;;;;;;13.10;51.59;99273.19;3363365;29;20425;-72
2021/10/16 05:43:29;;;;;;;;;;;;;;;13.27;51.37;99278.00;3373942;29;20108;-71
2021/10/16 05:45:12;;;;;;;8.35;4.35;;;;;;;13.34;50.98;99286.75;3363209;29;20018;-72
2021/10/16 05:46:55;;;;;;;6.72;4.50;;;;;;;13.32;51.01;99272.81;3386777;29;20128;-72
2021/10/16 05:48:36;;;;;;;5.63;4.45;;;;;;;13.29;51.02;99267.88;3365303;29;20044;-72
2021/10/16 05:50:17;;;;;;;6.15;5.53;;;;;;;13.24;50.95;99271.22;3360426;29;20041;-72
2021/10/16 05:51:58;;;;;;;9.95;5.28;;;;;;;13.20;51.22;99263.84;3360606;29;20417;-73
2021/10/16 05:53:39;;;;;;;5.50;4.20;;;;;;;13.26;51.08;99260.28;3363747;29;20037;-72
2021/10/16 05:55:20;;;;;;;9.43;4.93;;;;;;;13.30;51.09;99261.50;3388999;29;20044;-72
2021/10/16 05:57:01;;;;;;;8.57;4.93;;;;;;;13.30;50.92;99256.16;3365382;29;20068;-72
2021/10/16 05:58:42;;;;;;;7.00;4.80;;;;;;;13.28;51.00;99271.59;3360577;29;20097;-73
2021/10/16 06:00:23;;;;;;;7.15;4.55;;;;;;;13.33;51.16;99258.38;3363614;29;20041;-73
2021/10/16 06:02:10;;;;;;;7.18;4.57;;;;;;;13.56;50.97;99256.88;3375748;29;20041;-74
2021/10/16 06:03:51;;;;;;;7.68;5.60;;;;;;;13.77;50.47;99244.88;3363024;29;20077;-73
2021/10/16 06:05:35;;;;;;;12.93;5.43;;;;;;;13.83;49.97;99257.34;3359991;29;20608;-72
2021/10/16 06:07:15;;;;;;;5.88;4.80;;;;;;;13.81;49.98;99254.06;3373298;29;20091;-72
2021/10/16 06:08:57;;;;;;;8.55;5.38;;;;;;;13.67;49.98;99240.88;3362244;29;20124;-73
2021/10/16 06:10:38;;;;;;;6.00;4.47;;;;;;;13.58;50.15;99236.03;3363128;29;20048;-73
2021/10/16 06:12:23;;;;;;;7.60;5.07;;;;;;;13.47;50.37;99233.06;3388921;29;20197;-72
2021/10/16 06:14:03;;;;;;;5.93;4.30;;;;;;;13.50;50.57;99243.34;3352427;29;20046;-73
2021/10/16 06:15:44;;;;;;;6.15;4.43;;;;;;;13.56;50.43;99240.81;3361022;29;20045;-73
2021/10/16 06:17:25;;;;;;;9.57;5.00;;;;;;;13.60;50.24;99247.34;3388760;29;20044;-73
2021/10/16 06:19:06;;;;;;;8.15;4.85;;;;;;;13.61;50.17;99243.63;3378526;29;20040;-72
2021/10/16 06:20:49;;;;;;;5.80;5.03;;;;;;;13.72;50.11;99240.19;3375566;29;20052;-73
2021/10/16 06:22:29;;;;;;;8.10;5.03;;;;;;;13.70;49.89;99240.41;3365074;29;20044;-73
2021/10/16 06:24:11;;;;;;;8.80;5.45;;;;;;;13.66;50.06;99241.09;3363406;29;20066;-73
2021/10/16 06:26:12;;;;;;;5.75;4.85;;;;;;;13.65;50.03;99237.59;3375265;29;20056;-72
2021/10/16 06:27:53;;;;;;;11.82;5.10;;;;;;;13.63;49.89;99233.50;3388577;29;20098;-72
2021/10/16 06:29:34;;;;;;;7.97;4.63;;;;;;;13.71;50.00;99234.03;3365421;29;20041;-72
2021/10/16 06:31:15;;;;;;;7.10;4.55;;;;;;;13.80;49.91;99229.16;3385782;29;20402;-73
2021/10/16 06:32:56;;;;;;;14.73;5.30;;;;;;;13.82;49.60;99229.75;3365356;29;20268;-74
2021/10/16 06:34:38;;;;;;;6.80;5.25;;;;;;;13.82;49.55;99235.09;3359595;29;20041;-74
2021/10/16 06:36:19;;;;;;;11.35;5.25;;;;;;;13.82;49.50;99235.09;3363210;29;20057;-74
2021/10/16 06:38:03;;;;;;;8.90;4.60;;;;;;;13.82;49.57;99248.50;3387418;29;20040;-73
2021/10/16 06:39:44;;;;;;;10.18;5.25;;;;;;;13.83;49.33;99241.28;3364514;29;20114;-73
2021/10/16 06:41:25;;;;;;;7.97;4.78;;;;;;;13.85;49.41;99241.88;3363381;29;20048;-72
2021/10/16 06:43:45;;;;;;;8.07;4.18;;;;;;;13.83;49.29;99227.88;3336446;29;20486;-73
2021/10/16 06:45:44;;;;;;;8.35;5.05;;;;;;;13.97;49.18;99234.72;3336541;29;20090;-72
2021/10/16 06:47:33;;;;;;;7.70;4.80;;;;;;;14.08;49.07;99233.91;3323778;29;20046;-73
2021/10/16 06:49:25;;;;;;;9.18;5.22;;;;;;;14.19;48.64;99227.75;3350965;29;20065;-71
2021/10/16 06:51:06;;;;;;;8.85;4.72;;;;;;;14.17;48.54;99226.34;3359857;29;20136;-74
2021/10/16 06:52:47;;;;;;;5.78;4.22;;;;;;;14.07;48.56;99231.44;3359974;29;20048;-73
2021/10/16 06:54:29;;;;;;;8.90;4.93;;;;;;;14.03;48.82;99243.69;3359580;29;20113;-74
2021/10/16 06:56:10;;;;;;;8.35;5.05;;;;;;;13.92;48.89;99246.09;3362364;29;20461;-73
2021/10/16 06:58:10;;;;;;;6.60;4.70;;;;;;;13.84;49.11;99246.41;3375345;29;20428;-73
2021/10/16 06:59:51;;;;;;;9.63;4.53;;;;;;;13.84;49.08;99240.25;3362670;29;20049;-72
2021/10/16 07:01:34;;;;;;;10.40;4.85;;;;;;;13.82;49.11;99250.38;3359791;29;20520;-73
2021/10/16 07:03:28;;;;;;;17.70;5.55;;;;;;;13.78;49.06;99238.47;3362499;29;20080;-72
2021/10/16 07:05:09;;;;;;;8.93;5.18;;;;;;;13.76;49.10;99238.72;3360199;29;20052;-74
2021/10/16 07:06:50;;;;;;;12.15;5.28;;;;;;;13.78;48.93;99238.47;3360068;29;20045;-73
2021/10/16 07:08:38;;;;;;;6.35;4.38;;;;;;;13.69;49.07;99230.75;3361098;29;20552;-73
2021/10/16 07:10:19;;;;;;;7.95;5.07;;;;;;;13.65;49.23;99232.22;3363396;29;20045;-73
2021/10/16 07:12:00;;;;;;;8.35;4.32;;;;;;;13.65;49.08;99215.34;3363416;29;20052;-74
2021/10/16 07:13:40;;;;;;;11.77;5.25;;;;;;;13.59;49.23;99221.63;3363300;29;20166;-73
2021/10/16 07:15:22;;;;;;;9.93;5.53;;;;;;;13.51;49.39;99234.28;3349680;29;20045;-73
2021/10/16 07:17:03;;;;;;;10.38;5.95;;;;;;;13.58;49.27;99228.84;3359476;29;20048;-73
2021/10/16 07:18:43;;;;;;;7.18;4.80;;;;;;;13.63;49.31;99220.94;3363147;29;20117;-73
2021/10/16 07:20:24;;;;;;;6.30;4.45;;;;;;;13.61;49.20;99223.03;3362745;29;20080;-72
2021/10/16 07:22:05;;;;;;;6.60;4.55;;;;;;;13.60;49.05;99209.84;3362954;29;20127;-72
2021/10/16 07:23:46;;;;;;;6.53;4.85;;;;;;;13.65;49.02;99212.69;3363136;29;20128;-73
2021/10/16 07:25:26;;;;;;;6.70;4.20;;;;;;;13.66;49.08;99208.97;3362828;29;20080;-73
2021/10/16 07:27:07;;;;;;;7.07;5.05;;;;;;;13.64;48.87;99229.78;3387886;29;20052;-74
2021/10/16 07:28:48;;;;;;;6.57;4.47;;;;;;;13.63;48.95;99209.41;3367829;29;20041;-73
2021/10/16 07:30:28;;;;;;;6.20;4.63;;;;;;;13.67;49.02;99207.91;3362769;29;20116;-72
2021/10/16 07:32:09;;;;;;;5.93;4.45;;;;;;;13.72;48.85;99208.06;3362910;29;20052;-72
2021/10/16 07:33:50;;;;;;;9.38;5.28;;;;;;;13.72;48.83;99213.41;3363032;29;20041;-73
2021/10/16 07:35:31;;;;;;;5.82;3.97;;;;;;;13.74;48.72;99216.69;3362920;29;20497;-72
2021/10/16 07:37:11;;;;;;;9.00;4.55;;;;;;;13.74;48.84;99214.00;3362642;29;20044;-73
2021/10/16 07:38:52;;;;;;;15.52;4.20;;;;;;;13.84;48.74;99211.59;3361700;29;20504;-74
2021/10/16 07:40:33;;;;;;;8.57;4.82;;;;;;;13.94;48.36;99219.91;3362297;29;20057;-74
2021/10/16 07:42:13;;;;;;;6.82;4.18;;;;;;;13.93;48.32;99220.94;3362816;29;20088;-72
2021/10/16 07:43:54;;;;;;;9.90;4.95;;;;;;;13.98;48.27;99219.44;3362914;29;20055;-73
2021/10/16 07:45:34;;;;;;;9.48;4.68;;;;;;;14.00;48.24;99225.41;3362677;29;20045;-72
2021/10/16 07:47:15;;;;;;;6.40;4.13;;;;;;;14.13;48.24;99209.13;3362694;29;20045;-73
2021/10/16 07:48:56;;;;;;;6.82;4.07;;;;;;;14.31;47.67;99210.91;3361780;29;20041;-73
2021/10/16 07:50:36;;;;;;;8.60;4.63;;;;;;;14.37;47.56;99216.16;3362756;29;20108;-73
2021/10/16 07:52:17;;;;;;;9.57;4.55;;;;;;;14.36;47.55;99209.16;3362838;29;21150;-73
2021/10/16 07:53:58;;;;;;;10.07;5.10;;;;;;;14.36;47.21;99208.34;3362577;29;20049;-74
2021/10/16 07:55:38;;;;;;;7.15;4.60;;;;;;;14.37;47.30;99201.94;3362622;29;20096;-74
2021/10/16 07:57:21;;;;;;;8.05;4.63;;;;;;;14.24;47.45;99205.63;3362659;29;20052;-73
2021/10/16 07:59:02;;;;;;;6.20;4.75;;;;;;;14.20;47.48;99199.13;3362315;29;20048;-73
2021/10/16 08:00:43;;;;;;;6.18;4.05;;;;;;;14.23;47.77;99192.47;3362814;29;20045;-72
2021/10/16 08:02:23;;;;;;;7.80;5.45;;;;;;;14.37;47.53;99188.53;3362929;29;20044;-73